Time;durP1;ratioP1;P1;durP2;ratioP2;P2;SDS_P1;SDS_P2;PMS_P1;PMS_P2;Temp;Humidity;BMP_temperature;BMP_pressure;BME280_temperature;BME280_humidity;BME280_pressure;Samples;Min_cycle;Max_cycle;Signal;HPM_P1;HPM_P2
2024/02/04 00:00:46;;;;;;;1.42;0.95;;;23.20;47.60;;;;;;5081023;28;20039;-65
2024/02/04 00:03:12;;;;;;;1.40;0.77;;;23.20;47.60;;;;;;5083082;28;20036;-65
2024/02/04 00:05:37;;;;;;;1.30;0.80;;;23.20;47.60;;;;;;5095658;28;20027;-65
2024/02/04 00:08:03;;;;;;;1.33;0.90;;;23.20;47.60;;;;;;5081931;28;20028;-69
2024/02/04 00:10:29;;;;;;;1.33;0.93;;;23.20;47.60;;;;;;5083061;28;20468;-67
2024/02/04 00:12:55;;;;;;;1.42;0.90;;;23.20;47.60;;;;;;5079116;28;20573;-68
2024/02/04 00:15:21;;;;;;;1.63;1.08;;;23.20;47.60;;;;;;5080076;28;20056;-68
2024/02/04 00:17:47;;;;;;;1.40;0.90;;;23.20;47.60;;;;;;5081920;28;20032;-69
2024/02/04 00:20:12;;;;;;;1.17;0.90;;;23.20;47.60;;;;;;5063813;28;20031;-67
2024/02/04 00:22:39;;;;;;;1.63;1.00;;;23.30;47.70;;;;;;5083274;28;20476;-68
2024/02/04 00:25:05;;;;;;;1.40;0.98;;;23.20;47.60;;;;;;5082271;28;20495;-68
2024/02/04 00:27:31;;;;;;;1.40;0.85;;;23.20;48.10;;;;;;5081403;28;20028;-69
2024/02/04 00:29:58;;;;;;;1.50;0.85;;;23.20;47.60;;;;;;5078159;28;20174;-68
2024/02/04 00:32:24;;;;;;;1.20;0.90;;;23.20;47.60;;;;;;5081864;28;20060;-69
2024/02/04 00:34:50;;;;;;;1.70;1.08;;;23.20;47.60;;;;;;5083913;28;20147;-68
2024/02/04 00:37:16;;;;;;;1.40;1.00;;;23.20;47.60;;;;;;5071676;28;20508;-68
2024/02/04 00:39:41;;;;;;;2.45;0.90;;;23.20;47.50;;;;;;5082279;28;20373;-69
2024/02/04 00:42:07;;;;;;;1.55;0.82;;;23.20;47.60;;;;;;5082066;28;20062;-68
2024/02/04 00:44:33;;;;;;;1.58;1.05;;;23.20;47.60;;;;;;5079785;28;20290;-67
2024/02/04 00:46:58;;;;;;;1.63;0.90;;;23.30;47.60;;;;;;5071927;28;20457;-68
2024/02/04 00:49:26;;;;;;;1.38;0.80;;;23.30;47.50;;;;;;5081001;28;20020;-69
2024/02/04 00:51:51;;;;;;;1.23;0.82;;;23.30;47.50;;;;;;5078027;28;20023;-69
2024/02/04 00:54:17;;;;;;;1.02;0.70;;;23.30;47.60;;;;;;5079012;28;20028;-68
2024/02/04 00:56:43;;;;;;;1.50;0.90;;;23.20;47.40;;;;;;5081139;28;20017;-68
2024/02/04 00:59:08;;;;;;;1.45;0.80;;;23.30;47.40;;;;;;5079949;28;20048;-68
2024/02/04 01:01:34;;;;;;;0.90;0.80;;;23.20;47.40;;;;;;5082329;28;20027;-68
2024/02/04 01:04:00;;;;;;;1.20;0.85;;;23.20;47.40;;;;;;5080057;28;20024;-69
2024/02/04 01:06:25;;;;;;;1.70;0.93;;;23.20;47.40;;;;;;5080307;28;20130;-67
2024/02/04 01:08:51;;;;;;;1.30;0.80;;;23.30;47.50;;;;;;5078870;28;20032;-67
2024/02/04 01:11:17;;;;;;;1.80;1.00;;;23.30;47.50;;;;;;5082199;28;20104;-67
2024/02/04 01:13:42;;;;;;;1.15;0.90;;;23.20;47.50;;;;;;5079085;28;20027;-67
2024/02/04 01:16:08;;;;;;;1.45;0.80;;;23.20;47.50;;;;;;5082167;28;20029;-60
2024/02/04 01:18:33;;;;;;;1.38;0.80;;;23.20;47.50;;;;;;5080275;28;20622;-61
2024/02/04 01:21:00;;;;;;;1.02;0.70;;;23.20;47.50;;;;;;5080667;28;20480;-61
2024/02/04 01:23:26;;;;;;;1.35;1.00;;;23.20;47.50;;;;;;5080054;28;20503;-62
2024/02/04 01:25:51;;;;;;;1.00;0.75;;;23.20;47.50;;;;;;5070450;28;20024;-60
2024/02/04 01:28:17;;;;;;;1.52;0.80;;;23.20;47.50;;;;;;5079044;28;20147;-61
2024/02/04 01:30:43;;;;;;;1.17;0.90;;;23.20;47.50;;;;;;5081259;28;20027;-62
2024/02/04 01:33:13;;;;;;;1.42;0.90;;;23.10;47.50;;;;;;5079902;28;20063;-62
2024/02/04 01:35:39;;;;;;;1.42;0.85;;;23.10;47.50;;;;;;5070447;28;20024;-60
2024/02/04 01:38:05;;;;;;;1.38;0.90;;;23.10;47.50;;;;;;5080706;28;20032;-60
2024/02/04 01:40:30;;;;;;;1.63;0.90;;;23.00;47.50;;;;;;5080706;28;20473;-62
2024/02/04 01:42:56;;;;;;;1.38;0.70;;;23.10;47.80;;;;;;5079956;28;20025;-61
2024/02/04 01:45:22;;;;;;;1.50;0.80;;;23.00;47.50;;;;;;5080260;28;20020;-61
2024/02/04 01:47:48;;;;;;;0.60;0.60;;;23.00;47.50;;;;;;5080514;28;20019;-62
2024/02/04 01:50:15;;;;;;;1.52;0.80;;;23.00;47.50;;;;;;5078602;28;20487;-62
2024/02/04 01:52:43;;;;;;;1.10;0.80;;;23.00;47.50;;;;;;5070253;28;20043;-62
2024/02/04 01:55:09;;;;;;;1.17;0.80;;;23.00;47.60;;;;;;5077790;28;20034;-61
2024/02/04 01:57:35;;;;;;;1.05;0.90;;;23.00;47.50;;;;;;5079804;28;20031;-61
2024/02/04 02:00:02;;;;;;;1.33;0.80;;;22.90;47.50;;;;;;5076630;28;20037;-61
2024/02/04 02:02:27;;;;;;;1.10;0.70;;;22.90;47.50;;;;;;5080484;28;20511;-60
2024/02/04 02:04:53;;;;;;;1.23;0.77;;;22.90;47.40;;;;;;5080106;28;20048;-61
2024/02/04 02:07:24;;;;;;;1.20;0.90;;;22.90;47.50;;;;;;5081473;28;20582;-60
2024/02/04 02:09:49;;;;;;;1.33;0.80;;;22.80;48.00;;;;;;5078177;28;20398;-60
2024/02/04 02:12:24;;;;;;;1.80;0.80;;;22.80;47.40;;;;;;5078761;28;20102;-62
2024/02/04 02:15:18;;;;;;;1.42;0.90;;;22.80;47.50;;;;;;5078738;28;20093;-60
2024/02/04 02:18:16;;;;;;;1.10;0.77;;;22.80;47.50;;;;;;5071403;28;20052;-63
2024/02/04 02:21:17;;;;;;;1.30;0.90;;;22.80;47.50;;;;;;5078761;28;20036;-62
2024/02/04 02:23:54;;;;;;;1.67;0.93;;;22.80;47.50;;;;;;5078966;28;20035;-61
2024/02/04 02:26:20;;;;;;;1.58;0.80;;;22.70;47.50;;;;;;5077188;28;20484;-62
2024/02/04 02:28:46;;;;;;;1.20;0.90;;;22.70;47.50;;;;;;5075960;28;20527;-62
2024/02/04 02:31:12;;;;;;;1.05;0.80;;;22.70;47.50;;;;;;5080167;28;20017;-62
2024/02/04 02:33:37;;;;;;;1.42;0.93;;;22.70;47.50;;;;;;5079300;28;20602;-62
2024/02/04 02:36:09;;;;;;;0.85;0.75;;;22.70;47.50;;;;;;5080172;28;20024;-62
2024/02/04 02:38:57;;;;;;;1.17;0.80;;;22.60;47.50;;;;;;5078100;28;20020;-62
2024/02/04 02:41:23;;;;;;;1.13;0.80;;;22.60;47.50;;;;;;5079019;28;20028;-62
2024/02/04 02:43:52;;;;;;;1.33;0.82;;;22.60;47.50;;;;;;5077041;28;20081;-61
2024/02/04 02:46:19;;;;;;;1.02;0.80;;;22.60;47.60;;;;;;5077274;28;20070;-62
2024/02/04 02:48:44;;;;;;;0.98;0.77;;;22.60;47.50;;;;;;5079437;28;20491;-63
2024/02/04 02:51:10;;;;;;;1.05;0.80;;;22.50;47.60;;;;;;5078508;28;20025;-62
2024/02/04 02:53:36;;;;;;;1.02;0.75;;;22.60;47.60;;;;;;5077197;28;20098;-62
2024/02/04 02:56:01;;;;;;;1.35;0.80;;;22.50;47.60;;;;;;5079331;28;20024;-62
2024/02/04 02:58:27;;;;;;;0.82;0.70;;;22.50;47.60;;;;;;5079221;28;20032;-62
2024/02/04 03:00:52;;;;;;;1.25;0.80;;;22.50;47.60;;;;;;5076094;28;20036;-62
2024/02/04 03:03:18;;;;;;;1.23;0.80;;;22.40;47.60;;;;;;5076174;28;20475;-62
2024/02/04 03:05:44;;;;;;;1.10;0.80;;;22.40;47.60;;;;;;5077230;28;20563;-62
2024/02/04 03:08:09;;;;;;;1.05;0.70;;;22.40;47.60;;;;;;5076870;28;20021;-64
2024/02/04 03:10:35;;;;;;;1.13;0.80;;;22.40;47.60;;;;;;5076265;28;20104;-64
2024/02/04 03:13:01;;;;;;;1.00;0.73;;;22.40;47.70;;;;;;5077123;28;20025;-64
2024/02/04 03:15:27;;;;;;;1.27;0.80;;;22.40;47.70;;;;;;5077983;28;20032;-64
2024/02/04 03:17:53;;;;;;;0.93;0.68;;;22.30;47.60;;;;;;5076473;28;20518;-60
2024/02/04 03:20:18;;;;;;;1.25;0.70;;;22.30;47.60;;;;;;5076960;28;20400;-60
2024/02/04 03:22:46;;;;;;;0.70;0.70;;;22.30;47.70;;;;;;5079882;28;20040;-61
2024/02/04 03:25:11;;;;;;;1.08;0.70;;;22.30;47.60;;;;;;5079405;28;20082;-61
2024/02/04 03:27:39;;;;;;;0.70;0.68;;;22.30;47.70;;;;;;5079084;28;20110;-62
2024/02/04 03:30:05;;;;;;;0.60;0.60;;;22.30;47.70;;;;;;5076287;28;20037;-61
2024/02/04 03:32:33;;;;;;;0.93;0.70;;;22.30;47.70;;;;;;5078352;28;20104;-60
2024/02/04 03:35:00;;;;;;;1.13;0.68;;;22.20;47.70;;;;;;5078465;28;20492;-61
2024/02/04 03:37:26;;;;;;;1.23;0.73;;;22.20;47.70;;;;;;5078526;28;20467;-67
2024/02/04 03:39:51;;;;;;;0.93;0.70;;;22.20;47.70;;;;;;5076332;28;20107;-67
2024/02/04 03:42:18;;;;;;;0.75;0.70;;;22.20;47.70;;;;;;5078482;28;20108;-65
2024/02/04 03:44:44;;;;;;;0.60;0.60;;;22.20;47.70;;;;;;5076466;28;20086;-66
2024/02/04 03:47:09;;;;;;;1.02;0.75;;;22.20;47.80;;;;;;5076910;28;20024;-66
2024/02/04 03:49:35;;;;;;;1.00;0.70;;;22.10;47.70;;;;;;5077668;28;20024;-66
2024/02/04 03:52:00;;;;;;;1.20;0.80;;;22.10;47.70;;;;;;5078952;28;20052;-66
2024/02/04 03:54:26;;;;;;;0.70;0.50;;;22.10;47.70;;;;;;5077199;28;20462;-67
2024/02/04 03:56:51;;;;;;;1.00;0.70;;;22.10;47.70;;;;;;5080527;28;20028;-66
2024/02/04 03:59:17;;;;;;;0.70;0.70;;;22.10;47.70;;;;;;5076940;28;20127;-65
2024/02/04 04:01:49;;;;;;;1.25;0.85;;;22.10;47.80;;;;;;5078518;28;20404;-66
2024/02/04 04:04:16;;;;;;;0.80;0.80;;;22.10;47.80;;;;;;5078016;28;20488;-67
2024/02/04 04:06:44;;;;;;;0.98;0.70;;;22.10;47.80;;;;;;5073695;28;20036;-67
2024/02/04 04:09:10;;;;;;;0.80;0.70;;;22.00;47.80;;;;;;5080508;28;20024;-66
2024/02/04 04:11:36;;;;;;;1.00;0.70;;;22.00;47.80;;;;;;5079675;28;20388;-66
2024/02/04 04:14:02;;;;;;;0.77;0.70;;;22.00;48.30;;;;;;5080647;28;20028;-66
2024/02/04 04:16:28;;;;;;;0.60;0.60;;;22.00;47.80;;;;;;5060770;28;20473;-66
2024/02/04 04:18:54;;;;;;;0.75;0.70;;;22.00;47.90;;;;;;5081824;28;20468;-62
2024/02/04 04:21:20;;;;;;;0.70;0.68;;;21.90;47.80;;;;;;5072526;28;20028;-62
2024/02/04 04:23:46;;;;;;;0.90;0.63;;;21.90;47.80;;;;;;5082596;28;20046;-62
2024/02/04 04:26:12;;;;;;;0.73;0.60;;;21.90;47.90;;;;;;5080518;28;20025;-61
2024/02/04 04:28:37;;;;;;;1.10;0.70;;;21.90;47.90;;;;;;5080268;28;20024;-62
2024/02/04 04:31:03;;;;;;;1.00;0.60;;;21.90;47.90;;;;;;5078442;28;20039;-61
2024/02/04 04:33:29;;;;;;;0.68;0.60;;;21.90;47.90;;;;;;5078455;28;20132;-62
2024/02/04 04:35:55;;;;;;;0.65;0.57;;;21.90;48.00;;;;;;5081616;28;20027;-63
2024/02/04 04:38:21;;;;;;;0.70;0.60;;;21.80;48.20;;;;;;5080960;28;20123;-62
2024/02/04 04:40:47;;;;;;;0.60;0.60;;;21.90;48.00;;;;;;5081155;28;20523;-62
2024/02/04 04:43:12;;;;;;;0.47;0.47;;;21.80;48.00;;;;;;5080486;28;20028;-62
2024/02/04 04:45:40;;;;;;;0.50;0.50;;;21.80;48.00;;;;;;5081068;28;20064;-62
2024/02/04 04:48:07;;;;;;;0.60;0.60;;;21.80;48.00;;;;;;5081931;28;20024;-64
2024/02/04 04:50:33;;;;;;;1.10;0.80;;;21.80;48.00;;;;;;5083132;28;20099;-64
2024/02/04 04:52:59;;;;;;;0.73;0.70;;;21.80;48.00;;;;;;5081527;28;20450;-64
2024/02/04 04:55:24;;;;;;;0.52;0.52;;;21.80;48.00;;;;;;5082075;28;20950;-64
2024/02/04 04:57:52;;;;;;;0.70;0.60;;;21.80;48.00;;;;;;5080298;28;20047;-64
2024/02/04 05:00:18;;;;;;;0.60;0.60;;;21.80;48.10;;;;;;5069731;28;20017;-64
2024/02/04 05:02:44;;;;;;;0.70;0.60;;;21.70;48.10;;;;;;5081194;28;20082;-64
2024/02/04 05:05:12;;;;;;;0.57;0.57;;;21.70;48.00;;;;;;5080102;28;20024;-64
2024/02/04 05:07:38;;;;;;;0.50;0.50;;;21.80;48.10;;;;;;5080315;28;20094;-64
2024/02/04 05:10:04;;;;;;;0.45;0.45;;;21.70;48.10;;;;;;5080191;28;20426;-64
2024/02/04 05:12:30;;;;;;;0.52;0.50;;;21.70;48.10;;;;;;5081361;28;20032;-64
2024/02/04 05:14:55;;;;;;;0.60;0.57;;;21.70;48.10;;;;;;5078377;28;20397;-64
2024/02/04 05:17:21;;;;;;;1.17;0.70;;;21.70;48.60;;;;;;5079497;28;20028;-64
2024/02/04 05:19:47;;;;;;;0.50;0.50;;;21.70;48.10;;;;;;5079607;28;20024;-64
2024/02/04 05:22:13;;;;;;;0.50;0.50;;;21.60;48.10;;;;;;5080661;28;20032;-64
2024/02/04 05:24:38;;;;;;;0.52;0.50;;;21.70;48.20;;;;;;5080214;28;20070;-64
2024/02/04 05:27:04;;;;;;;0.50;0.50;;;21.60;48.20;;;;;;5078582;28;20495;-67
2024/02/04 05:29:31;;;;;;;0.95;0.75;;;21.60;48.10;;;;;;5077550;28;20044;-66
2024/02/04 05:31:56;;;;;;;0.50;0.50;;;21.60;48.20;;;;;;5079409;28;20504;-66
2024/02/04 05:34:22;;;;;;;0.60;0.60;;;21.60;48.20;;;;;;5080267;28;20107;-67
2024/02/04 05:36:48;;;;;;;0.60;0.60;;;21.60;48.20;;;;;;5080973;28;20028;-66
2024/02/04 05:39:15;;;;;;;0.65;0.60;;;21.60;48.20;;;;;;5078413;28;20623;-66
2024/02/04 05:41:41;;;;;;;0.50;0.50;;;21.60;48.30;;;;;;5080067;28;20365;-66
2024/02/04 05:44:10;;;;;;;0.85;0.60;;;21.60;48.30;;;;;;5080873;28;20028;-67
2024/02/04 05:46:36;;;;;;;0.60;0.60;;;21.60;48.30;;;;;;5078046;28;20025;-67
2024/02/04 05:49:02;;;;;;;0.57;0.57;;;21.50;48.20;;;;;;5080336;28;20059;-66
2024/02/04 05:51:28;;;;;;;0.50;0.50;;;21.60;48.30;;;;;;5082615;28;20056;-67
2024/02/04 05:53:54;;;;;;;0.60;0.55;;;21.50;48.30;;;;;;5080640;28;20461;-67
2024/02/04 05:56:20;;;;;;;0.57;0.45;;;21.50;48.30;;;;;;5070106;28;20032;-66
2024/02/04 05:58:46;;;;;;;0.63;0.60;;;21.50;48.30;;;;;;5077165;28;20043;-66
2024/02/04 06:01:11;;;;;;;0.52;0.50;;;21.50;48.30;;;;;;5079798;28;20047;-66
2024/02/04 06:03:37;;;;;;;0.50;0.50;;;21.50;48.30;;;;;;5080234;28;20496;-66
2024/02/04 06:06:03;;;;;;;0.60;0.60;;;21.50;48.30;;;;;;5080241;28;20024;-66
2024/02/04 06:08:29;;;;;;;0.68;0.68;;;21.50;48.30;;;;;;5079816;28;20112;-66
2024/02/04 06:10:54;;;;;;;0.60;0.60;;;21.50;48.40;;;;;;5079057;28;20078;-66
2024/02/04 06:13:20;;;;;;;0.82;0.50;;;21.50;48.40;;;;;;5078940;28;20021;-66
2024/02/04 06:15:45;;;;;;;0.65;0.50;;;21.40;48.30;;;;;;5078083;28;20028;-67
2024/02/04 06:18:11;;;;;;;0.60;0.60;;;21.50;48.40;;;;;;5079507;28;20089;-66
2024/02/04 06:20:37;;;;;;;0.60;0.60;;;21.50;48.40;;;;;;5078957;28;20032;-66
2024/02/04 06:23:02;;;;;;;0.60;0.60;;;21.40;48.40;;;;;;5079043;28;20107;-66
2024/02/04 06:25:28;;;;;;;0.50;0.50;;;21.40;48.40;;;;;;5078274;28;20021;-66
2024/02/04 06:27:53;;;;;;;0.50;0.50;;;21.50;48.50;;;;;;5077492;28;20119;-66
2024/02/04 06:30:19;;;;;;;0.60;0.55;;;21.40;48.40;;;;;;5080436;28;20032;-66
2024/02/04 06:32:47;;;;;;;0.43;0.43;;;21.40;48.40;;;;;;5076898;28;20032;-66
2024/02/04 06:35:13;;;;;;;0.63;0.50;;;21.40;48.40;;;;;;5078952;28;20318;-66
2024/02/04 06:37:38;;;;;;;0.75;0.60;;;21.40;48.40;;;;;;5079853;28;20090;-66
2024/02/04 06:40:04;;;;;;;0.50;0.50;;;21.40;48.40;;;;;;5077957;28;20028;-66
2024/02/04 06:42:30;;;;;;;0.50;0.50;;;21.40;48.40;;;;;;5077716;28;20036;-64
2024/02/04 06:44:55;;;;;;;0.50;0.50;;;21.40;48.40;;;;;;5079039;28;20119;-66
2024/02/04 06:47:21;;;;;;;1.85;0.60;;;21.40;48.40;;;;;;5080076;28;20032;-61
2024/02/04 06:49:46;;;;;;;0.65;0.65;;;21.40;48.40;;;;;;5079286;28;20028;-61
2024/02/04 06:52:12;;;;;;;0.70;0.55;;;21.40;48.40;;;;;;5078998;28;20103;-60
2024/02/04 06:54:38;;;;;;;0.50;0.50;;;21.30;48.40;;;;;;5078579;28;20855;-61
2024/02/04 06:57:03;;;;;;;0.60;0.55;;;21.30;48.40;;;;;;5077797;28;20115;-61
2024/02/04 06:59:29;;;;;;;0.50;0.50;;;21.30;48.40;;;;;;5078934;28;20033;-61
2024/02/04 07:01:55;;;;;;;0.80;0.65;;;21.30;48.40;;;;;;5076927;28;20029;-61
2024/02/04 07:04:26;;;;;;;0.50;0.50;;;21.30;48.40;;;;;;5077230;28;20388;-62
2024/02/04 07:06:53;;;;;;;0.50;0.50;;;21.30;48.40;;;;;;5079786;28;20553;-62
2024/02/04 07:09:18;;;;;;;0.60;0.50;;;21.30;48.90;;;;;;5077735;28;20535;-64
2024/02/04 07:11:44;;;;;;;0.50;0.50;;;21.30;48.40;;;;;;5078522;28;20119;-64
2024/02/04 07:14:10;;;;;;;1.55;0.80;;;21.30;48.90;;;;;;5079598;28;20907;-64
2024/02/04 07:16:36;;;;;;;0.50;0.50;;;21.30;48.30;;;;;;5076774;28;20020;-64
2024/02/04 07:19:02;;;;;;;1.08;0.73;;;21.30;48.20;;;;;;5077780;28;20032;-64
2024/02/04 07:21:28;;;;;;;1.20;0.68;;;21.30;48.10;;;;;;5080070;28;20469;-64
2024/02/04 07:23:53;;;;;;;0.60;0.60;;;21.30;48.10;;;;;;5078770;28;20042;-64
2024/02/04 07:26:19;;;;;;;0.80;0.60;;;21.20;48.10;;;;;;5077426;28;20778;-64
2024/02/04 07:28:45;;;;;;;0.73;0.60;;;21.30;48.10;;;;;;5058644;28;20036;-64
2024/02/04 07:31:10;;;;;;;0.95;0.60;;;21.20;48.10;;;;;;5078295;28;20110;-64
2024/02/04 07:33:36;;;;;;;1.13;0.77;;;21.20;48.10;;;;;;5078605;28;20046;-64
2024/02/04 07:36:02;;;;;;;0.60;0.60;;;21.20;48.10;;;;;;5078484;28;20032;-64
2024/02/04 07:38:28;;;;;;;0.60;0.50;;;21.20;48.10;;;;;;5082469;28;20032;-64
2024/02/04 07:40:55;;;;;;;0.98;0.70;;;21.20;48.60;;;;;;5080395;28;20036;-64
2024/02/04 07:43:21;;;;;;;0.70;0.60;;;21.20;48.10;;;;;;5084209;28;20089;-64
2024/02/04 07:45:46;;;;;;;0.50;0.50;;;21.20;48.60;;;;;;5082879;28;20020;-64
2024/02/04 07:48:12;;;;;;;0.85;0.65;;;21.20;48.10;;;;;;5077886;28;20012;-62
2024/02/04 07:50:38;;;;;;;0.60;0.60;;;21.20;48.20;;;;;;5079475;28;20141;-62
2024/02/04 07:53:03;;;;;;;0.55;0.45;;;21.20;48.20;;;;;;5081186;28;20032;-61
2024/02/04 07:55:29;;;;;;;0.50;0.50;;;21.20;48.20;;;;;;5081410;28;20392;-60
2024/02/04 07:57:55;;;;;;;0.50;0.50;;;21.20;48.20;;;;;;5077351;28;20039;-66
2024/02/04 08:00:21;;;;;;;0.80;0.60;;;21.10;48.30;;;;;;5081535;28;20476;-67
2024/02/04 08:02:46;;;;;;;0.55;0.55;;;21.10;48.30;;;;;;5080388;28;20031;-66
2024/02/04 08:05:12;;;;;;;0.70;0.70;;;21.10;48.30;;;;;;5083081;28;20475;-66
2024/02/04 08:07:38;;;;;;;1.80;0.60;;;21.10;48.30;;;;;;5082203;28;20372;-67
2024/02/04 08:10:04;;;;;;;0.90;0.65;;;21.10;48.30;;;;;;5082963;28;20071;-66
2024/02/04 08:12:30;;;;;;;0.88;0.55;;;21.10;48.30;;;;;;5080266;28;20575;-66
2024/02/04 08:14:56;;;;;;;0.50;0.50;;;21.10;48.30;;;;;;5082849;28;20101;-66
2024/02/04 08:17:21;;;;;;;0.63;0.60;;;21.10;48.30;;;;;;5080424;28;20496;-60
2024/02/04 08:19:47;;;;;;;0.68;0.60;;;21.10;48.40;;;;;;5079034;28;20028;-60
2024/02/04 08:22:13;;;;;;;0.70;0.60;;;21.10;48.40;;;;;;5079392;28;20039;-62
2024/02/04 08:24:38;;;;;;;0.85;0.77;;;21.10;48.40;;;;;;5080612;28;20029;-61
2024/02/04 08:27:04;;;;;;;2.03;0.70;;;21.10;48.40;;;;;;5083090;28;20020;-61
2024/02/04 08:29:30;;;;;;;0.75;0.52;;;21.10;48.50;;;;;;5081978;28;20033;-60
2024/02/04 08:31:56;;;;;;;0.60;0.60;;;21.10;48.50;;;;;;5078621;28;20317;-62
2024/02/04 08:34:23;;;;;;;0.60;0.60;;;21.10;48.50;;;;;;5079572;28;20550;-60
2024/02/04 08:36:50;;;;;;;0.57;0.57;;;21.10;48.50;;;;;;5081593;28;20081;-62
2024/02/04 08:39:15;;;;;;;0.52;0.50;;;21.00;48.50;;;;;;5074369;28;20021;-60
2024/02/04 08:41:41;;;;;;;0.50;0.50;;;21.00;48.50;;;;;;5081361;28;20032;-61
2024/02/04 08:44:07;;;;;;;0.60;0.60;;;21.00;48.50;;;;;;5061741;28;20043;-60
2024/02/04 08:46:33;;;;;;;0.55;0.50;;;21.00;48.50;;;;;;5079221;28;20028;-61
2024/02/04 08:48:58;;;;;;;0.75;0.60;;;21.00;48.60;;;;;;5078771;28;20539;-62
2024/02/04 08:51:24;;;;;;;0.52;0.50;;;21.00;48.60;;;;;;5076633;28;20040;-61
2024/02/04 08:53:49;;;;;;;0.50;0.50;;;21.00;48.60;;;;;;5078923;28;20361;-61
2024/02/04 08:56:15;;;;;;;0.75;0.60;;;21.00;48.60;;;;;;5080754;28;20030;-62
2024/02/04 08:58:41;;;;;;;1.05;0.80;;;21.00;49.10;;;;;;5080316;28;20469;-66
2024/02/04 09:01:06;;;;;;;0.55;0.55;;;21.00;48.60;;;;;;5082039;28;20028;-66
2024/02/04 09:03:32;;;;;;;0.70;0.50;;;21.00;48.70;;;;;;5080911;28;20044;-66
2024/02/04 09:05:58;;;;;;;0.75;0.60;;;21.00;48.70;;;;;;5080865;28;20036;-66
2024/02/04 09:08:24;;;;;;;0.63;0.55;;;21.00;48.70;;;;;;5070848;28;20089;-66
2024/02/04 09:10:49;;;;;;;0.90;0.65;;;21.00;48.70;;;;;;5082174;28;20052;-66
2024/02/04 09:13:15;;;;;;;1.38;0.70;;;21.00;48.70;;;;;;5079720;28;20103;-66
2024/02/04 09:15:41;;;;;;;0.95;0.60;;;21.00;49.30;;;;;;5079172;28;20040;-65
2024/02/04 09:18:07;;;;;;;0.65;0.60;;;21.00;48.80;;;;;;5079020;28;20109;-66
2024/02/04 09:20:33;;;;;;;0.50;0.50;;;20.90;48.70;;;;;;5080267;28;20038;-66
2024/02/04 09:22:58;;;;;;;0.70;0.60;;;21.00;48.80;;;;;;5078804;28;20539;-66
2024/02/04 09:25:27;;;;;;;0.90;0.63;;;20.90;48.70;;;;;;5080557;28;20036;-66
2024/02/04 09:27:53;;;;;;;0.60;0.53;;;21.00;48.80;;;;;;5095984;28;20020;-62
2024/02/04 09:30:18;;;;;;;0.57;0.50;;;20.90;48.80;;;;;;5079895;28;20273;-62
2024/02/04 09:32:44;;;;;;;0.63;0.50;;;20.90;48.80;;;;;;5077963;28;20114;-62
2024/02/04 09:35:10;;;;;;;0.45;0.43;;;20.90;48.80;;;;;;5079064;28;20029;-62
2024/02/04 09:37:35;;;;;;;0.50;0.50;;;20.90;48.80;;;;;;5082549;28;20028;-63
2024/02/04 09:40:01;;;;;;;0.52;0.52;;;20.90;48.80;;;;;;5078854;28;20032;-63
2024/02/04 09:42:28;;;;;;;0.50;0.50;;;20.90;48.80;;;;;;5080404;28;20103;-63
2024/02/04 09:44:53;;;;;;;1.58;0.52;;;20.90;48.80;;;;;;5069364;28;20044;-62
2024/02/04 09:47:20;;;;;;;0.80;0.60;;;20.90;48.80;;;;;;5079143;28;20452;-61
2024/02/04 09:49:46;;;;;;;0.73;0.60;;;20.90;48.80;;;;;;5082555;28;20502;-60
2024/02/04 09:52:13;;;;;;;1.95;0.70;;;20.90;48.90;;;;;;5080822;28;20017;-61
2024/02/04 09:55:06;;;;;;;0.60;0.50;;;20.90;48.90;;;;;;5079901;28;20081;-61
2024/02/04 09:57:34;;;;;;;0.88;0.60;;;20.90;48.90;;;;;;5076748;28;20040;-61
2024/02/04 10:00:01;;;;;;;1.05;0.50;;;20.90;48.90;;;;;;5078887;28;20064;-62
2024/02/04 10:02:27;;;;;;;0.52;0.50;;;20.90;48.90;;;;;;5077809;28;20035;-60
2024/02/04 10:04:53;;;;;;;0.50;0.50;;;20.90;48.90;;;;;;5078236;28;20381;-61
2024/02/04 10:07:19;;;;;;;0.85;0.50;;;20.90;48.90;;;;;;5078657;28;20039;-66
2024/02/04 10:09:45;;;;;;;0.47;0.47;;;20.90;48.90;;;;;;5079167;28;20421;-67
2024/02/04 10:12:10;;;;;;;0.80;0.60;;;20.90;48.90;;;;;;5078499;28;20085;-66
2024/02/04 10:14:36;;;;;;;0.55;0.55;;;20.90;48.90;;;;;;5077897;28;20028;-67
2024/02/04 10:17:02;;;;;;;0.63;0.50;;;20.90;48.90;;;;;;5079148;28;20365;-65
2024/02/04 10:19:27;;;;;;;0.80;0.63;;;20.90;48.90;;;;;;5079150;28;20024;-65
2024/02/04 10:22:03;;;;;;;1.40;0.60;;;20.90;48.90;;;;;;5076821;28;20021;-65
2024/02/04 10:24:29;;;;;;;0.60;0.60;;;20.90;48.90;;;;;;5078987;28;20032;-64
2024/02/04 10:26:56;;;;;;;0.43;0.43;;;20.90;48.90;;;;;;5077765;28;20024;-64
2024/02/04 10:29:23;;;;;;;0.85;0.60;;;20.90;48.90;;;;;;5078270;28;20472;-63
2024/02/04 10:31:48;;;;;;;1.45;0.50;;;20.90;48.90;;;;;;5079398;28;20028;-64
2024/02/04 10:34:14;;;;;;;0.60;0.50;;;20.90;48.90;;;;;;5076069;28;20036;-64
2024/02/04 10:36:40;;;;;;;0.75;0.60;;;20.90;48.90;;;;;;5075321;28;20043;-64
2024/02/04 10:39:06;;;;;;;1.02;0.65;;;20.90;48.90;;;;;;5079383;28;20025;-64
2024/02/04 10:41:33;;;;;;;1.27;0.60;;;20.90;49.00;;;;;;5078374;28;20802;-64
2024/02/04 10:44:02;;;;;;;0.82;0.60;;;20.90;49.00;;;;;;5078738;28;20024;-64
2024/02/04 10:46:32;;;;;;;1.02;0.60;;;20.90;48.90;;;;;;5078710;28;20012;-64
2024/02/04 10:49:03;;;;;;;0.50;0.50;;;20.90;49.50;;;;;;5077951;28;20486;-64
2024/02/04 10:51:31;;;;;;;0.40;0.40;;;20.90;49.00;;;;;;5078696;28;20484;-64
2024/02/04 10:53:58;;;;;;;0.50;0.50;;;20.90;49.00;;;;;;5076632;28;20031;-65
2024/02/04 10:56:46;;;;;;;0.40;0.40;;;20.90;49.00;;;;;;5077122;28;20086;-64
2024/02/04 10:59:12;;;;;;;0.65;0.60;;;20.80;48.90;;;;;;5078458;28;20739;-66
2024/02/04 11:01:44;;;;;;;0.65;0.55;;;20.90;49.00;;;;;;5078066;28;20032;-67
2024/02/04 11:04:11;;;;;;;0.50;0.50;;;20.90;49.00;;;;;;5075078;28;20040;-66
2024/02/04 11:06:39;;;;;;;3.13;0.65;;;20.80;48.90;;;;;;5079151;28;20024;-67
2024/02/04 11:09:08;;;;;;;0.43;0.43;;;20.90;49.50;;;;;;5080631;28;20073;-67
2024/02/04 11:11:34;;;;;;;0.80;0.60;;;20.80;49.00;;;;;;5078181;28;20036;-66
2024/02/04 11:14:02;;;;;;;0.70;0.60;;;20.90;49.00;;;;;;5078921;28;20028;-67
2024/02/04 11:16:52;;;;;;;0.63;0.50;;;20.90;49.10;;;;;;5084443;28;20171;-67
2024/02/04 11:19:36;;;;;;;0.90;0.60;;;20.90;49.00;;;;;;5080981;28;20499;-60
2024/02/04 11:22:29;;;;;;;1.08;0.70;;;20.80;49.00;;;;;;5083008;28;20480;-60
2024/02/04 11:25:25;;;;;;;0.95;0.70;;;20.80;49.00;;;;;;5082438;28;20032;-61
2024/02/04 11:27:51;;;;;;;1.33;0.77;;;20.90;49.10;;;;;;5082321;28;20024;-66
2024/02/04 11:30:17;;;;;;;0.93;0.75;;;20.80;49.00;;;;;;5082237;28;20072;-67
2024/02/04 11:32:43;;;;;;;1.42;1.00;;;20.80;49.10;;;;;;5073074;28;20059;-67
2024/02/04 11:35:11;;;;;;;1.75;1.20;;;20.80;49.10;;;;;;5080975;28;20039;-67
2024/02/04 11:37:37;;;;;;;1.70;1.20;;;20.90;49.10;;;;;;5082117;28;20051;-66
2024/02/04 11:40:07;;;;;;;2.58;1.40;;;20.80;49.70;;;;;;5083374;28;20107;-66
2024/02/04 11:42:33;;;;;;;;;;;20.90;49.20;;;;;;5082137;28;20126;-67
2024/02/04 11:45:12;;;;;;;2.85;1.77;;;20.80;49.10;;;;;;5081294;28;19995;-66
2024/02/04 11:47:38;;;;;;;;;;;20.80;49.20;;;;;;5081535;28;20027;-67
2024/02/04 11:50:05;;;;;;;3.25;2.47;;;20.80;49.20;;;;;;5080070;28;19908;-66
2024/02/04 11:52:30;;;;;;;3.88;2.67;;;20.80;49.30;;;;;;5081772;28;20029;-66
2024/02/04 11:54:56;;;;;;;4.47;3.13;;;20.80;49.30;;;;;;5081778;28;20036;-66
2024/02/04 11:57:23;;;;;;;4.20;3.40;;;20.80;49.40;;;;;;5080628;28;20500;-66
2024/02/04 11:59:50;;;;;;;5.28;4.00;;;20.80;49.40;;;;;;5082634;28;20487;-66
2024/02/04 12:02:17;;;;;;;5.85;4.30;;;20.80;49.40;;;;;;5082575;28;20472;-67
2024/02/04 12:04:46;;;;;;;5.60;5.07;;;20.80;49.50;;;;;;5079296;28;20066;-67
2024/02/04 12:07:13;;;;;;;5.93;5.32;;;20.80;49.50;;;;;;5083251;28;20524;-62
2024/02/04 12:09:39;;;;;;;6.93;5.97;;;20.80;49.50;;;;;;5082130;28;20120;-63
2024/02/04 12:12:05;;;;;;;7.65;6.78;;;20.80;49.50;;;;;;5080935;28;20056;-63
2024/02/04 12:14:31;;;;;;;7.82;6.93;;;20.80;49.60;;;;;;5081816;28;20042;-63
2024/02/04 12:16:57;;;;;;;8.60;7.70;;;20.70;50.10;;;;;;5083316;28;20388;-63
2024/02/04 12:19:23;;;;;;;8.50;7.43;;;20.80;49.70;;;;;;5080234;28;20496;-62
2024/02/04 12:21:49;;;;;;;8.18;7.38;;;20.70;49.70;;;;;;5081822;28;20392;-63
2024/02/04 12:24:15;;;;;;;8.15;7.35;;;20.70;49.80;;;;;;5081341;28;20028;-62
2024/02/04 12:26:41;;;;;;;8.90;8.00;;;20.80;49.90;;;;;;5083261;28;20074;-63
2024/02/04 12:29:07;;;;;;;8.32;7.43;;;20.70;49.90;;;;;;5081665;28;20036;-64
2024/02/04 12:31:33;;;;;;;8.75;7.35;;;20.80;50.00;;;;;;5097301;28;20020;-64
2024/02/04 12:34:03;;;;;;;8.35;7.55;;;20.70;50.00;;;;;;5081296;28;20027;-64
2024/02/04 12:36:31;;;;;;;8.65;7.72;;;20.80;50.00;;;;;;5077186;28;20052;-64
2024/02/04 12:39:00;;;;;;;8.20;7.38;;;20.70;50.00;;;;;;5081414;28;20069;-63
2024/02/04 12:41:26;;;;;;;8.27;7.47;;;20.70;50.00;;;;;;5081215;28;20044;-62
2024/02/04 12:43:56;;;;;;;8.13;7.32;;;20.80;50.10;;;;;;5079084;28;20024;-62
2024/02/04 12:46:22;;;;;;;8.30;7.35;;;20.70;50.10;;;;;;5081293;28;20495;-62